CYNL

METAR CYNL 190100Z AUTO 19008KT 9SM CLR 25/04 A2984 RMK AO1 SLP085
METAR
LOCATION
CYNL
DATE - TIME
190100Z
WIND
190 TRUE @ 8 KNOTS
VISIBILITY
9SM
RUNWAY VISUAL RANGE
NOT REPORTED
WEATHER
CLOUDINESS
CLR
TEMP / DEWPOINT
25 ºC / 4 ºC
ALTIMETER
29.84 in. Hg
RECENT WEATHER
NOT REPORTED
WIND SHEAR
NOT REPORTED
REMARKS
RMK AO1 SLP085
SEA LEVEL PRESSURE: hPa

CYNL

METAR CYNL 190000Z AUTO 17009KT 9SM CLR 25/05 A2984 RMK AO1 SLP089
METAR
LOCATION
CYNL
DATE - TIME
190000Z
WIND
170 TRUE @ 9 KNOTS
VISIBILITY
9SM
RUNWAY VISUAL RANGE
NOT REPORTED
WEATHER
CLOUDINESS
CLR
TEMP / DEWPOINT
25 ºC / 5 ºC
ALTIMETER
29.84 in. Hg
RECENT WEATHER
NOT REPORTED
WIND SHEAR
NOT REPORTED
REMARKS
RMK AO1 SLP089
SEA LEVEL PRESSURE: hPa

CYNL

METAR CYNL 182300Z AUTO 17008KT 9SM CLR 26/06 A2985 RMK AO1 SLP094
METAR
LOCATION
CYNL
DATE - TIME
182300Z
WIND
170 TRUE @ 8 KNOTS
VISIBILITY
9SM
RUNWAY VISUAL RANGE
NOT REPORTED
WEATHER
CLOUDINESS
CLR
TEMP / DEWPOINT
26 ºC / 6 ºC
ALTIMETER
29.85 in. Hg
RECENT WEATHER
NOT REPORTED
WIND SHEAR
NOT REPORTED
REMARKS
RMK AO1 SLP094
SEA LEVEL PRESSURE: hPa

Your time UTC time
 
 
Weather data provided by AXYS Technologies Inc., www.axystechnologies.com
 
Station History